Avon Downs, Australia
Current Conditions -  °F | °C
As of 3:00 PM on Saturday 29 Nov 2014 (Local Time) from YBMA Reporting Station
Overcast Overcast  
Wind Chill: 97°   Ceiling: 8500
Heat Index: 97°   Visibility: 6mi
Dew Point: 57°   Wind: 14mph
Humidity: 27%   Direction: 10°N
Pressure: 29.68"   Gusts: NA
Location:  20.02°S, 137.67°E
Report Text: YBMA 290600Z AUTO 01012KT 9999 // BKN085 OVC110 36/14 Q1005
Loading
Personal Weather Stations






























Interactive Weather Map New forecast layout! Learn more

10-Day Weather Forecast

Advertisements
Track Severe Weather on mobile